createdAt,value
2018-10-02T00:02:27.613Z,73.80
2018-10-02T00:04:56.412Z,73.50
2018-10-02T00:07:25.096Z,73.60
2018-10-02T00:09:54.399Z,73.50
2018-10-02T00:12:28.247Z,73.50
2018-10-02T00:14:56.868Z,73.40
2018-10-02T00:17:25.458Z,72.90
2018-10-02T00:19:54.088Z,72.70
2018-10-02T00:22:22.970Z,72.60
2018-10-02T00:24:51.864Z,72.70
2018-10-02T00:27:20.438Z,73.00
2018-10-02T00:29:49.046Z,73.10
2018-10-02T00:32:17.821Z,73.50
2018-10-02T00:34:46.646Z,73.80
2018-10-02T00:37:15.284Z,74.10
2018-10-02T00:39:43.942Z,74.20
2018-10-02T00:42:12.753Z,74.40
2018-10-02T00:44:41.565Z,74.50
2018-10-02T00:47:10.164Z,74.50
2018-10-02T00:49:38.847Z,74.60
2018-10-02T00:52:07.536Z,74.70
2018-10-02T00:54:36.704Z,74.70
2018-10-02T00:57:05.612Z,74.90
2018-10-02T00:59:34.153Z,75.00
2018-10-02T01:02:02.821Z,75.10
2018-10-02T01:04:31.440Z,75.50
2018-10-02T01:07:01.218Z,75.80
2018-10-02T01:09:29.920Z,76.00
2018-10-02T01:11:58.525Z,76.30
2018-10-02T01:14:27.161Z,76.50
2018-10-02T01:16:55.715Z,76.50
2018-10-02T01:19:24.333Z,76.60
2018-10-02T01:21:52.900Z,77.00
2018-10-02T01:24:21.441Z,77.20
2018-10-02T01:26:50.117Z,77.40
2018-10-02T01:29:18.725Z,77.70
2018-10-02T01:31:47.385Z,77.80
2018-10-02T01:34:15.928Z,78.20
2018-10-02T01:36:44.548Z,78.40
2018-10-02T01:39:13.189Z,78.60
2018-10-02T01:41:41.808Z,78.90
2018-10-02T01:44:10.484Z,79.10
2018-10-02T01:46:39.108Z,79.30
2018-10-02T01:49:07.724Z,79.60
2018-10-02T01:51:36.328Z,79.90
2018-10-02T01:54:04.927Z,79.90
2018-10-02T01:56:33.443Z,79.90
2018-10-02T01:59:02.024Z,79.70
2018-10-02T02:01:30.605Z,79.70
2018-10-02T02:03:59.326Z,79.80
2018-10-02T02:06:27.911Z,80.10
2018-10-02T02:08:56.599Z,80.30
2018-10-02T02:11:25.192Z,80.40
2018-10-02T02:13:53.733Z,81.60
2018-10-02T02:16:22.323Z,81.40
2018-10-02T02:18:51.015Z,81.70
2018-10-02T02:21:19.661Z,81.80
2018-10-02T02:23:48.246Z,82.00
2018-10-02T02:26:17.444Z,82.20
2018-10-02T02:28:46.067Z,82.60
2018-10-02T02:31:14.728Z,82.90
2018-10-02T02:33:43.352Z,83.10
2018-10-02T02:36:12.188Z,83.30
2018-10-02T02:38:41.161Z,83.60
2018-10-02T02:41:09.764Z,83.70
2018-10-02T02:43:38.414Z,83.90
2018-10-02T02:46:07.488Z,84.10
2018-10-02T02:48:41.478Z,84.30
2018-10-02T02:51:15.362Z,84.50
2018-10-02T02:53:44.601Z,84.70
2018-10-02T02:56:13.200Z,84.90
2018-10-02T02:58:42.029Z,85.10
2018-10-02T03:01:10.742Z,85.30
2018-10-02T03:03:39.297Z,85.60
2018-10-02T03:06:07.864Z,86.00
2018-10-02T03:08:36.615Z,86.00
2018-10-02T03:11:05.232Z,86.30
2018-10-02T03:13:34.038Z,86.50
2018-10-02T03:16:02.647Z,86.60
2018-10-02T03:18:31.292Z,86.80
2018-10-02T03:20:59.830Z,87.00
2018-10-02T03:23:28.464Z,87.10
2018-10-02T03:25:57.672Z,87.30
2018-10-02T03:28:26.305Z,87.40
2018-10-02T03:30:54.865Z,87.60
2018-10-02T03:33:23.444Z,87.80
2018-10-02T03:35:58.437Z,88.00
2018-10-02T03:38:27.020Z,88.50
2018-10-02T03:40:55.634Z,88.40
2018-10-02T03:43:24.481Z,88.70
2018-10-02T03:45:53.606Z,88.90
2018-10-02T03:48:22.297Z,89.00
2018-10-02T03:50:50.886Z,89.20
2018-10-02T03:53:19.941Z,89.40
2018-10-02T03:55:48.702Z,89.60
2018-10-02T03:58:17.322Z,89.90
2018-10-02T04:00:45.907Z,90.00
2018-10-02T04:03:15.060Z,90.00
2018-10-02T04:05:43.749Z,89.90
2018-10-02T04:08:12.779Z,90.00
2018-10-02T04:10:41.704Z,90.10
2018-10-02T04:13:10.320Z,90.20
2018-10-02T04:15:38.831Z,90.30
2018-10-02T04:18:07.381Z,91.00
2018-10-02T04:20:35.910Z,91.20
2018-10-02T04:23:04.482Z,90.90
2018-10-02T04:25:33.064Z,90.60
2018-10-02T04:28:01.786Z,90.60
2018-10-02T04:30:30.252Z,90.70
2018-10-02T04:32:58.791Z,91.00
2018-10-02T04:35:27.357Z,91.50
2018-10-02T04:37:55.950Z,91.10
2018-10-02T04:40:24.515Z,91.00
2018-10-02T04:42:53.067Z,91.10
2018-10-02T04:45:22.667Z,91.20
2018-10-02T04:47:54.051Z,91.20
2018-10-02T04:50:23.882Z,91.20
2018-10-02T04:52:52.728Z,91.30
2018-10-02T04:55:21.455Z,91.40
2018-10-02T04:57:50.017Z,91.50
2018-10-02T05:00:19.462Z,91.50
2018-10-02T05:02:48.019Z,91.70
2018-10-02T05:05:17.393Z,92.20
2018-10-02T05:07:46.022Z,92.30
2018-10-02T05:10:14.646Z,92.50
2018-10-02T05:12:43.907Z,92.60
2018-10-02T05:15:13.055Z,92.70
2018-10-02T05:17:41.752Z,92.70
2018-10-02T05:20:10.470Z,92.80
2018-10-02T05:22:39.018Z,92.90
2018-10-02T05:25:07.686Z,92.90
2018-10-02T05:27:36.361Z,93.00
2018-10-02T05:30:05.109Z,93.00
2018-10-02T05:32:34.378Z,92.90
2018-10-02T05:35:03.720Z,93.00
2018-10-02T05:37:32.259Z,93.00
2018-10-02T05:40:00.806Z,93.20
2018-10-02T05:42:29.454Z,93.20
2018-10-02T05:44:58.009Z,93.40
2018-10-02T05:47:26.614Z,93.50
2018-10-02T05:49:55.177Z,93.60
2018-10-02T05:52:23.711Z,93.60
2018-10-02T05:54:52.338Z,93.60
2018-10-02T05:57:20.948Z,93.60
2018-10-02T05:59:49.631Z,93.60
2018-10-02T06:02:20.432Z,93.60
2018-10-02T06:04:49.021Z,93.60
2018-10-02T06:07:17.661Z,93.70
2018-10-02T06:09:47.067Z,93.80
2018-10-02T06:12:15.693Z,93.80
2018-10-02T06:14:44.847Z,93.90
2018-10-02T06:17:13.483Z,93.90
2018-10-02T06:19:42.262Z,94.00
2018-10-02T06:22:10.897Z,94.00
2018-10-02T06:24:40.100Z,94.10
2018-10-02T06:27:08.667Z,94.10
2018-10-02T06:29:37.316Z,94.20
2018-10-02T06:32:06.725Z,94.20
2018-10-02T06:34:35.596Z,94.30
2018-10-02T06:37:04.245Z,94.40
2018-10-02T06:39:33.874Z,94.60
2018-10-02T06:42:02.946Z,94.60
2018-10-02T06:44:33.015Z,94.70
2018-10-02T06:47:01.557Z,94.80
2018-10-02T06:49:30.248Z,94.80
2018-10-02T06:51:58.922Z,94.90
2018-10-02T06:54:27.985Z,95.00
2018-10-02T06:56:57.370Z,95.10
2018-10-02T06:59:26.108Z,95.20
2018-10-02T07:01:54.740Z,95.80
2018-10-02T07:04:23.352Z,95.40
2018-10-02T07:06:52.147Z,95.60
2018-10-02T07:09:20.780Z,95.80
2018-10-02T07:11:49.428Z,95.70
2018-10-02T07:14:17.978Z,95.80
2018-10-02T07:16:46.600Z,96.00
2018-10-02T07:19:15.258Z,96.10
2018-10-02T07:21:43.958Z,96.20
2018-10-02T07:24:12.523Z,96.30
2018-10-02T07:26:41.357Z,96.50
2018-10-02T07:29:10.039Z,96.60
2018-10-02T07:31:38.682Z,96.80
2018-10-02T07:34:07.326Z,96.80
2018-10-02T07:36:37.561Z,96.90
2018-10-02T07:39:11.663Z,97.20
2018-10-02T07:41:44.520Z,97.40
2018-10-02T07:44:13.236Z,97.40
2018-10-02T07:46:42.549Z,97.50
2018-10-02T07:49:11.138Z,97.60
2018-10-02T07:51:39.843Z,97.80
2018-10-02T07:54:08.503Z,97.80
2018-10-02T07:56:37.198Z,97.90
2018-10-02T07:59:05.728Z,97.90
2018-10-02T08:01:34.445Z,98.00
2018-10-02T08:04:03.038Z,98.10
2018-10-02T08:06:31.677Z,98.20
2018-10-02T08:09:00.305Z,98.30
2018-10-02T08:11:29.033Z,98.50
2018-10-02T08:13:57.525Z,98.60
2018-10-02T08:16:26.139Z,98.60
2018-10-02T08:18:54.653Z,98.80
2018-10-02T08:21:23.249Z,98.90
2018-10-02T08:23:51.834Z,99.00
2018-10-02T08:26:20.410Z,99.10
2018-10-02T08:28:49.101Z,99.20
2018-10-02T08:31:17.711Z,99.20
2018-10-02T08:33:46.834Z,99.20
2018-10-02T08:36:15.456Z,99.20
2018-10-02T08:38:44.031Z,99.30
2018-10-02T08:41:19.366Z,99.40
2018-10-02T08:43:48.048Z,99.50
2018-10-02T08:46:16.634Z,99.70
2018-10-02T08:48:45.184Z,99.70
2018-10-02T08:51:14.331Z,99.70
2018-10-02T08:53:43.094Z,99.90
2018-10-02T08:56:11.670Z,99.90
2018-10-02T08:58:40.254Z,99.90
2018-10-02T09:01:09.541Z,99.90
2018-10-02T09:03:38.154Z,99.90
2018-10-02T09:06:06.798Z,99.90
2018-10-02T09:08:35.364Z,99.90
2018-10-02T09:11:04.044Z,99.90
2018-10-02T09:13:32.593Z,99.90
2018-10-02T09:16:01.901Z,99.90
2018-10-02T09:18:30.332Z,99.90
2018-10-02T09:20:58.998Z,99.90
2018-10-02T09:23:27.635Z,99.90
2018-10-02T09:25:56.324Z,99.90
2018-10-02T09:28:24.877Z,99.90
2018-10-02T09:30:58.762Z,99.90
2018-10-02T09:33:33.245Z,99.90
2018-10-02T09:36:07.103Z,99.90
2018-10-02T09:38:40.884Z,99.90
2018-10-02T09:41:14.729Z,99.90
2018-10-02T09:43:48.679Z,99.90
2018-10-02T09:46:17.184Z,99.90
2018-10-02T09:48:46.027Z,99.90
2018-10-02T09:51:14.535Z,99.90
2018-10-02T09:53:43.120Z,99.90
2018-10-02T09:56:11.672Z,99.90
2018-10-02T09:58:40.295Z,99.90
2018-10-02T10:01:14.169Z,99.90
2018-10-02T10:03:42.841Z,99.90
2018-10-02T10:06:11.437Z,99.90
2018-10-02T10:08:40.033Z,99.90
2018-10-02T10:11:08.645Z,99.90
2018-10-02T10:13:37.194Z,99.90
2018-10-02T10:16:06.575Z,99.90
2018-10-02T10:18:35.184Z,99.90
2018-10-02T10:21:03.849Z,99.90
2018-10-02T10:23:32.463Z,99.90
2018-10-02T10:26:01.042Z,99.90
2018-10-02T10:28:29.581Z,99.90
2018-10-02T10:30:58.172Z,99.90
2018-10-02T10:33:26.755Z,99.90
2018-10-02T10:35:55.447Z,99.90
2018-10-02T10:38:24.020Z,99.90
2018-10-02T10:40:53.246Z,99.90
2018-10-02T10:43:21.908Z,99.90
2018-10-02T10:45:50.550Z,99.90
2018-10-02T10:48:19.400Z,99.90
2018-10-02T10:50:48.036Z,99.90
2018-10-02T10:53:16.644Z,99.90
2018-10-02T10:55:45.259Z,99.90
2018-10-02T10:58:13.909Z,99.90
2018-10-02T11:00:42.443Z,99.90
2018-10-02T11:03:11.163Z,99.90
2018-10-02T11:05:39.853Z,99.90
2018-10-02T11:08:08.389Z,99.90
2018-10-02T11:10:36.987Z,99.90
2018-10-02T11:13:05.576Z,99.90
2018-10-02T11:15:34.937Z,99.90
2018-10-02T11:18:03.593Z,99.90
2018-10-02T11:20:33.819Z,99.90
2018-10-02T11:23:02.578Z,99.90
2018-10-02T11:25:31.335Z,99.90
2018-10-02T11:28:00.038Z,99.90
2018-10-02T11:30:28.653Z,99.90
2018-10-02T11:32:57.254Z,99.90
2018-10-02T11:35:26.081Z,99.90
2018-10-02T11:37:54.716Z,99.90
2018-10-02T11:40:23.361Z,99.90
2018-10-02T11:42:51.984Z,99.90
2018-10-02T11:45:20.645Z,99.90
2018-10-02T11:47:49.310Z,99.90
2018-10-02T11:50:17.930Z,99.90
2018-10-02T11:52:46.525Z,99.90
2018-10-02T11:55:15.937Z,99.90
2018-10-02T11:57:44.698Z,99.90
2018-10-02T12:00:13.440Z,99.80
2018-10-02T12:02:42.208Z,99.90
2018-10-02T12:05:10.819Z,99.90
2018-10-02T12:07:39.413Z,99.90
2018-10-02T12:10:08.047Z,99.80
2018-10-02T12:12:37.426Z,99.90
2018-10-02T12:15:06.186Z,99.90
2018-10-02T12:17:34.822Z,99.90
2018-10-02T12:20:03.732Z,99.30
2018-10-02T12:22:32.197Z,98.40
2018-10-02T12:25:00.759Z,99.90
2018-10-02T12:27:29.425Z,99.90
2018-10-02T12:29:57.978Z,99.90
2018-10-02T12:32:26.529Z,99.50
2018-10-02T12:34:55.112Z,99.90
2018-10-02T12:37:23.664Z,99.90
2018-10-02T12:39:52.308Z,97.90
2018-10-02T12:42:21.038Z,99.00
2018-10-02T12:44:49.845Z,98.80
2018-10-02T12:47:18.420Z,95.50
2018-10-02T12:49:47.092Z,96.20
2018-10-02T12:52:15.944Z,96.20
2018-10-02T12:54:44.561Z,93.90
2018-10-02T12:57:13.199Z,93.40
2018-10-02T12:59:41.774Z,93.80
2018-10-02T13:02:10.412Z,92.90
2018-10-02T13:04:38.996Z,95.30
2018-10-02T13:07:07.629Z,98.40
2018-10-02T13:09:36.627Z,96.10
2018-10-02T13:12:05.271Z,96.30
2018-10-02T13:14:33.888Z,95.90
2018-10-02T13:17:02.478Z,95.60
2018-10-02T13:19:31.685Z,95.50
2018-10-02T13:22:00.229Z,96.30
2018-10-02T13:24:28.900Z,94.50
2018-10-02T13:26:57.541Z,92.20
2018-10-02T13:29:26.136Z,90.80
2018-10-02T13:31:54.804Z,95.30
2018-10-02T13:34:23.426Z,95.90
2018-10-02T13:36:52.168Z,94.30
2018-10-02T13:39:20.794Z,91.10
2018-10-02T13:41:49.387Z,87.70
2018-10-02T13:44:17.940Z,90.50
2018-10-02T13:46:46.720Z,86.50
2018-10-02T13:49:15.367Z,90.00
2018-10-02T13:51:44.975Z,89.20
2018-10-02T13:54:13.722Z,87.80
2018-10-02T13:56:42.887Z,87.60
2018-10-02T13:59:11.536Z,84.40
2018-10-02T14:01:40.292Z,86.80
2018-10-02T14:04:09.057Z,84.50
2018-10-02T14:06:38.016Z,82.40
2018-10-02T14:09:08.271Z,79.00
2018-10-02T14:11:37.027Z,81.00
2018-10-02T14:14:05.697Z,80.10
2018-10-02T14:16:34.367Z,79.20
2018-10-02T14:19:03.017Z,78.00
2018-10-02T14:21:31.720Z,74.40
2018-10-02T14:24:02.611Z,72.20
2018-10-02T14:26:31.246Z,75.50
2018-10-02T14:28:59.933Z,72.90
2018-10-02T14:31:28.547Z,72.00
2018-10-02T14:33:57.223Z,69.80
2018-10-02T14:36:25.884Z,68.40
2018-10-02T14:38:54.607Z,68.60
2018-10-02T14:41:23.217Z,68.30
2018-10-02T14:43:51.829Z,67.10
2018-10-02T14:46:20.458Z,67.10
2018-10-02T14:48:49.072Z,67.40
2018-10-02T14:51:17.758Z,68.80
2018-10-02T14:53:46.392Z,68.20
2018-10-02T14:56:15.253Z,67.70
2018-10-02T14:58:43.929Z,67.60
2018-10-02T15:01:13.319Z,68.00
2018-10-02T15:03:41.985Z,69.00
2018-10-02T15:06:10.738Z,66.50
2018-10-02T15:08:39.504Z,66.00
2018-10-02T15:11:08.107Z,66.00
2018-10-02T15:13:36.835Z,65.70
2018-10-02T15:16:05.866Z,68.00
2018-10-02T15:18:34.599Z,68.50
2018-10-02T15:21:03.226Z,68.60
2018-10-02T15:23:31.845Z,69.00
2018-10-02T15:26:00.620Z,70.10
2018-10-02T15:28:29.186Z,70.20
2018-10-02T15:30:57.896Z,69.70
2018-10-02T15:33:26.529Z,69.70
2018-10-02T15:35:55.194Z,68.70
2018-10-02T15:38:23.780Z,69.50
2018-10-02T15:40:53.179Z,69.00
2018-10-02T15:43:21.886Z,68.40
2018-10-02T15:45:50.487Z,68.20
2018-10-02T15:48:19.084Z,67.20
2018-10-02T15:50:47.773Z,67.00
2018-10-02T15:53:16.435Z,66.10
2018-10-02T15:55:45.140Z,66.50
2018-10-02T15:58:13.878Z,66.90
2018-10-02T16:00:42.432Z,66.50
2018-10-02T16:03:11.078Z,65.70
2018-10-02T16:05:39.692Z,65.20
2018-10-02T16:08:08.364Z,65.30
2018-10-02T16:10:36.990Z,65.40
2018-10-02T16:13:05.835Z,65.10
2018-10-02T16:15:34.585Z,65.50
2018-10-02T16:18:03.280Z,65.70
2018-10-02T16:20:31.877Z,66.00
2018-10-02T16:23:00.490Z,66.50
2018-10-02T16:25:29.692Z,66.80
2018-10-02T16:27:58.318Z,66.80
2018-10-02T16:30:26.999Z,66.20
2018-10-02T16:32:55.746Z,66.50
2018-10-02T16:35:24.331Z,66.60
2018-10-02T16:37:52.989Z,66.80
2018-10-02T16:40:21.632Z,66.80
2018-10-02T16:42:50.277Z,66.90
2018-10-02T16:45:18.942Z,67.10
2018-10-02T16:47:47.605Z,67.30
2018-10-02T16:50:16.313Z,67.70
2018-10-02T16:52:44.997Z,67.80
2018-10-02T16:55:13.624Z,67.90
2018-10-02T16:57:42.260Z,68.00
2018-10-02T17:00:10.944Z,68.60
2018-10-02T17:02:39.665Z,67.90
2018-10-02T17:05:08.856Z,68.00
2018-10-02T17:07:37.583Z,68.30
2018-10-02T17:10:06.323Z,68.40
2018-10-02T17:12:35.083Z,68.40
2018-10-02T17:15:03.749Z,68.60
2018-10-02T17:17:32.334Z,68.90
2018-10-02T17:20:00.998Z,69.10
2018-10-02T17:22:29.801Z,69.30
2018-10-02T17:24:58.714Z,69.40
2018-10-02T17:27:27.475Z,69.50
2018-10-02T17:29:56.257Z,69.60
2018-10-02T17:32:25.039Z,69.90
2018-10-02T17:34:53.936Z,70.10
2018-10-02T17:37:22.734Z,70.10
2018-10-02T17:39:51.491Z,70.20
2018-10-02T17:42:20.247Z,70.30
2018-10-02T17:44:48.996Z,70.30
2018-10-02T17:47:17.702Z,70.70
2018-10-02T17:49:46.539Z,70.80
2018-10-02T17:52:15.130Z,70.90
2018-10-02T17:54:43.845Z,71.30
2018-10-02T17:57:12.662Z,71.30
2018-10-02T17:59:42.182Z,71.70
2018-10-02T18:02:11.089Z,71.90
2018-10-02T18:04:39.935Z,72.10
2018-10-02T18:07:08.637Z,72.00
2018-10-02T18:09:37.204Z,71.50
2018-10-02T18:12:06.010Z,71.30
2018-10-02T18:14:34.628Z,71.40
2018-10-02T18:17:03.498Z,71.50
2018-10-02T18:19:32.369Z,71.90
2018-10-02T18:22:01.109Z,72.20
2018-10-02T18:24:30.489Z,72.70
2018-10-02T18:26:59.131Z,73.10
2018-10-02T18:29:27.820Z,72.30
2018-10-02T18:31:57.114Z,72.50
2018-10-02T18:34:25.776Z,72.30
2018-10-02T18:36:54.454Z,72.60
2018-10-02T18:39:23.105Z,72.60
2018-10-02T18:41:51.831Z,72.40
2018-10-02T18:44:20.701Z,72.50
2018-10-02T18:46:49.353Z,72.70
2018-10-02T18:49:19.473Z,72.90
2018-10-02T18:51:48.001Z,72.70
2018-10-02T18:54:17.805Z,72.60
2018-10-02T18:56:46.487Z,72.70
2018-10-02T18:59:15.050Z,73.60
2018-10-02T19:01:44.019Z,73.00
2018-10-02T19:04:12.860Z,73.40
2018-10-02T19:06:41.620Z,73.60
2018-10-02T19:09:15.650Z,74.00
2018-10-02T19:11:49.719Z,73.90
2018-10-02T19:14:19.323Z,74.10
2018-10-02T19:16:47.982Z,74.30
2018-10-02T19:19:21.871Z,74.70
2018-10-02T19:21:50.474Z,74.60
2018-10-02T19:24:19.656Z,74.80
2018-10-02T19:26:48.343Z,75.30
2018-10-02T19:29:18.003Z,75.30
2018-10-02T19:31:52.107Z,75.50
2018-10-02T19:34:20.864Z,75.90
2018-10-02T19:36:49.905Z,76.30
2018-10-02T19:39:25.099Z,76.80
2018-10-02T19:41:54.106Z,76.80
2018-10-02T19:44:23.267Z,76.60
2018-10-02T19:46:53.360Z,76.60
2018-10-02T19:49:23.623Z,76.70
2018-10-02T19:51:57.758Z,76.70
2018-10-02T19:54:26.791Z,76.90
2018-10-02T19:56:55.765Z,77.00
2018-10-02T19:59:24.407Z,77.50
2018-10-02T20:01:53.515Z,77.70
2018-10-02T20:04:22.170Z,77.50
2018-10-02T20:06:50.725Z,77.60
2018-10-02T20:09:19.508Z,78.70
2018-10-02T20:11:48.856Z,79.70
2018-10-02T20:14:17.554Z,80.90
2018-10-02T20:16:46.238Z,81.60
2018-10-02T20:19:15.176Z,82.00
2018-10-02T20:21:43.929Z,82.40
2018-10-02T20:24:12.548Z,82.40
2018-10-02T20:26:41.272Z,82.60
2018-10-02T20:29:09.901Z,82.80
2018-10-02T20:31:41.188Z,83.00
2018-10-02T20:34:09.892Z,83.60
2018-10-02T20:36:39.061Z,83.90
2018-10-02T20:39:09.275Z,84.10
2018-10-02T20:41:37.917Z,84.60
2018-10-02T20:44:06.908Z,84.60
2018-10-02T20:46:35.682Z,85.00
2018-10-02T20:49:04.417Z,85.50
2018-10-02T20:51:33.097Z,85.80
2018-10-02T20:54:01.738Z,85.80
2018-10-02T20:56:31.136Z,85.80
2018-10-02T20:58:59.941Z,85.90
2018-10-02T21:01:29.201Z,85.60
2018-10-02T21:03:57.865Z,85.90
2018-10-02T21:06:26.733Z,86.20
2018-10-02T21:08:55.365Z,86.30
2018-10-02T21:11:23.948Z,87.00
2018-10-02T21:13:52.682Z,87.60
2018-10-02T21:16:21.435Z,87.70
2018-10-02T21:18:56.654Z,87.80
2018-10-02T21:21:25.294Z,87.90
2018-10-02T21:23:53.942Z,88.00
2018-10-02T21:26:22.780Z,88.40
2018-10-02T21:28:51.481Z,88.60
2018-10-02T21:31:20.139Z,88.60
2018-10-02T21:33:48.710Z,88.60
2018-10-02T21:36:17.691Z,88.30
2018-10-02T21:38:46.654Z,88.30
2018-10-02T21:41:15.521Z,88.30
2018-10-02T21:43:44.451Z,88.30
2018-10-02T21:46:13.018Z,88.30
2018-10-02T21:48:41.689Z,88.40
2018-10-02T21:51:10.362Z,88.50
2018-10-02T21:53:39.426Z,88.60
2018-10-02T21:56:08.232Z,88.90
2018-10-02T21:58:37.138Z,89.20
2018-10-02T22:01:06.533Z,89.40
2018-10-02T22:03:37.432Z,89.30
2018-10-02T22:06:06.223Z,89.40
2018-10-02T22:08:34.988Z,89.40
2018-10-02T22:11:03.785Z,89.50
2018-10-02T22:13:32.412Z,89.70
2018-10-02T22:16:01.333Z,90.00
2018-10-02T22:18:29.922Z,90.00
2018-10-02T22:20:58.845Z,90.10
2018-10-02T22:23:27.633Z,90.30
2018-10-02T22:25:56.220Z,90.40
2018-10-02T22:28:24.776Z,90.50
2018-10-02T22:30:53.617Z,90.60
2018-10-02T22:33:22.406Z,90.70
2018-10-02T22:35:50.919Z,91.10
2018-10-02T22:38:19.497Z,90.80
2018-10-02T22:40:48.381Z,90.90
2018-10-02T22:43:16.913Z,91.00
2018-10-02T22:45:45.489Z,91.20
2018-10-02T22:48:14.020Z,91.20
2018-10-02T22:50:42.705Z,91.00
2018-10-02T22:53:11.549Z,90.80
2018-10-02T22:55:40.116Z,90.80
2018-10-02T22:58:08.727Z,90.90
2018-10-02T23:00:37.320Z,91.10
2018-10-02T23:03:05.888Z,91.20
2018-10-02T23:05:34.450Z,91.30
2018-10-02T23:08:03.004Z,91.40
2018-10-02T23:10:31.621Z,91.50
2018-10-02T23:13:00.168Z,91.50
2018-10-02T23:15:29.035Z,91.40
2018-10-02T23:17:57.615Z,91.40
2018-10-02T23:20:26.261Z,91.70
2018-10-02T23:22:55.068Z,91.40
2018-10-02T23:25:23.615Z,91.30
2018-10-02T23:27:52.295Z,91.40
2018-10-02T23:30:20.960Z,91.50
2018-10-02T23:32:49.700Z,91.30
2018-10-02T23:35:18.205Z,91.30
2018-10-02T23:37:46.854Z,91.40
2018-10-02T23:40:15.398Z,91.40
2018-10-02T23:42:43.991Z,91.30
2018-10-02T23:45:12.533Z,91.10
2018-10-02T23:47:41.085Z,91.10
2018-10-02T23:50:09.629Z,91.00
2018-10-02T23:52:38.201Z,91.00
2018-10-02T23:55:06.749Z,91.00
2018-10-02T23:57:35.385Z,90.80
